createdAt,value
2018-03-03T00:00:57.271Z,20.23
2018-03-03T00:03:27.184Z,18.60
2018-03-03T00:05:56.896Z,18.10
2018-03-03T00:08:26.757Z,20.40
2018-03-03T00:10:56.519Z,19.67
2018-03-03T00:13:26.429Z,21.20
2018-03-03T00:15:56.344Z,19.60
2018-03-03T00:18:27.636Z,20.70
2018-03-03T00:20:57.605Z,20.70
2018-03-03T00:23:27.316Z,19.70
2018-03-03T00:25:57.230Z,20.47
2018-03-03T00:28:26.939Z,18.70
2018-03-03T00:30:56.705Z,21.57
2018-03-03T00:33:26.361Z,20.30
2018-03-03T00:35:56.272Z,20.77
2018-03-03T00:38:25.982Z,19.57
2018-03-03T00:40:55.894Z,19.83
2018-03-03T00:43:25.608Z,20.10
2018-03-03T00:45:55.526Z,18.80
2018-03-03T00:48:25.434Z,18.87
2018-03-03T00:50:55.346Z,19.00
2018-03-03T00:53:25.056Z,19.63
2018-03-03T00:55:54.709Z,21.90
2018-03-03T00:58:24.440Z,21.07
2018-03-03T01:00:54.185Z,21.83
2018-03-03T01:03:23.901Z,20.37
2018-03-03T01:05:54.181Z,20.37
2018-03-03T01:08:23.927Z,20.80
2018-03-03T01:10:53.637Z,19.40
2018-03-03T01:13:23.347Z,19.13
2018-03-03T01:15:53.059Z,19.33
2018-03-03T01:18:22.765Z,19.60
2018-03-03T01:20:54.114Z,18.20
2018-03-03T01:23:23.823Z,20.57
2018-03-03T01:25:53.499Z,20.90
2018-03-03T01:28:23.241Z,20.63
2018-03-03T01:30:52.951Z,19.70
2018-03-03T01:33:22.865Z,20.03
2018-03-03T01:35:54.012Z,18.23
2018-03-03T01:38:23.719Z,19.90
2018-03-03T01:40:53.426Z,20.60
2018-03-03T01:43:24.263Z,20.90
2018-03-03T01:45:54.075Z,20.90
2018-03-03T01:48:23.784Z,22.30
2018-03-03T01:50:53.492Z,21.30
2018-03-03T01:53:23.205Z,22.23
2018-03-03T01:55:52.912Z,23.93
2018-03-03T01:58:22.825Z,21.23
2018-03-03T02:00:52.740Z,21.13
2018-03-03T02:03:22.449Z,22.30
2018-03-03T02:05:52.158Z,21.70
2018-03-03T02:08:23.302Z,22.53
2018-03-03T02:10:53.166Z,25.30
2018-03-03T02:13:23.745Z,23.20
2018-03-03T02:15:53.452Z,22.90
2018-03-03T02:18:23.162Z,23.47
2018-03-03T02:20:53.282Z,22.17
2018-03-03T02:23:23.196Z,22.40
2018-03-03T02:25:52.907Z,23.43
2018-03-03T02:28:22.616Z,25.60
2018-03-03T02:30:53.963Z,20.97
2018-03-03T02:33:23.673Z,23.10
2018-03-03T02:35:53.382Z,21.63
2018-03-03T02:38:23.090Z,22.63
2018-03-03T02:40:52.800Z,24.17
2018-03-03T02:43:22.511Z,24.30
2018-03-03T02:45:52.424Z,22.83
2018-03-03T02:48:22.080Z,23.53
2018-03-03T02:50:51.842Z,23.77
2018-03-03T02:53:23.194Z,24.60
2018-03-03T02:55:54.538Z,22.83
2018-03-03T02:58:24.248Z,22.63
2018-03-03T03:00:54.163Z,25.00
2018-03-03T03:03:25.252Z,22.13
2018-03-03T03:05:55.017Z,22.83
2018-03-03T03:08:26.361Z,23.30
2018-03-03T03:10:56.282Z,24.30
2018-03-03T03:13:25.993Z,22.70
2018-03-03T03:15:55.898Z,24.73
2018-03-03T03:18:25.610Z,23.00
2018-03-03T03:20:55.318Z,25.70
2018-03-03T03:23:26.638Z,25.40
2018-03-03T03:25:56.578Z,23.03
2018-03-03T03:28:26.290Z,22.60
2018-03-03T03:30:56.408Z,22.90
2018-03-03T03:33:26.116Z,24.47
2018-03-03T03:35:55.836Z,23.77
2018-03-03T03:38:25.743Z,21.70
2018-03-03T03:40:55.451Z,22.80
2018-03-03T03:43:26.138Z,21.90
2018-03-03T03:45:56.174Z,25.60
2018-03-03T03:48:26.420Z,22.13
2018-03-03T03:50:56.338Z,22.87
2018-03-03T03:53:26.052Z,21.87
2018-03-03T03:55:55.754Z,23.40
2018-03-03T03:58:25.468Z,23.93
2018-03-03T04:00:55.173Z,25.70
2018-03-03T04:03:24.885Z,22.73
2018-03-03T04:05:54.590Z,24.27
2018-03-03T04:08:24.307Z,21.70
2018-03-03T04:10:54.014Z,22.20
2018-03-03T04:13:23.868Z,22.33
2018-03-03T04:15:53.635Z,21.47
2018-03-03T04:18:24.368Z,20.40
2018-03-03T04:20:54.076Z,21.17
2018-03-03T04:23:25.426Z,22.40
2018-03-03T04:25:55.137Z,20.93
2018-03-03T04:28:24.841Z,25.97
2018-03-03T04:30:54.555Z,21.07
2018-03-03T04:33:24.467Z,21.60
2018-03-03T04:35:54.176Z,20.30
2018-03-03T04:38:24.088Z,22.40
2018-03-03T04:40:53.798Z,21.80
2018-03-03T04:43:25.967Z,22.50
2018-03-03T04:45:55.825Z,21.40
2018-03-03T04:48:25.792Z,21.73
2018-03-03T04:50:56.526Z,21.80
2018-03-03T04:53:26.238Z,20.23
2018-03-03T04:55:55.950Z,21.23
2018-03-03T04:58:25.664Z,20.53
2018-03-03T05:00:55.570Z,21.43
2018-03-03T05:03:25.485Z,20.23
2018-03-03T05:05:55.139Z,21.40
2018-03-03T05:08:24.902Z,19.53
2018-03-03T05:10:56.248Z,20.20
2018-03-03T05:13:25.961Z,19.53
2018-03-03T05:15:55.630Z,20.83
2018-03-03T05:18:25.583Z,19.33
2018-03-03T05:20:55.616Z,20.03
2018-03-03T05:23:27.368Z,20.97
2018-03-03T05:25:59.364Z,18.93
2018-03-03T05:28:32.816Z,17.70
2018-03-03T05:31:02.935Z,17.13
2018-03-03T05:33:32.854Z,18.20
2018-03-03T05:36:03.175Z,19.33
2018-03-03T05:38:34.315Z,17.83
2018-03-03T05:41:05.041Z,16.93
2018-03-03T05:43:34.963Z,16.70
2018-03-03T05:46:04.827Z,18.10
2018-03-03T05:48:34.794Z,19.80
2018-03-03T05:51:04.707Z,19.40
2018-03-03T05:53:36.262Z,19.97
2018-03-03T05:56:07.142Z,17.50
2018-03-03T05:58:37.668Z,21.90
2018-03-03T06:01:07.588Z,18.30
2018-03-03T06:03:37.489Z,17.77
2018-03-03T06:06:07.266Z,18.67
2018-03-03T06:08:38.048Z,21.03
2018-03-03T06:11:08.115Z,18.40
2018-03-03T06:13:38.029Z,20.13
2018-03-03T06:16:07.947Z,18.50
2018-03-03T06:18:37.802Z,17.90
2018-03-03T06:21:07.825Z,18.23
2018-03-03T06:23:37.686Z,18.53
2018-03-03T06:26:07.400Z,20.07
2018-03-03T06:28:38.538Z,18.93
2018-03-03T06:31:08.348Z,19.00
2018-03-03T06:33:38.147Z,19.80
2018-03-03T06:36:07.871Z,19.47
2018-03-03T06:38:37.579Z,18.83
2018-03-03T06:41:07.494Z,18.83
2018-03-03T06:43:37.205Z,18.20
2018-03-03T06:46:06.913Z,19.37
2018-03-03T06:48:36.622Z,18.00
2018-03-03T06:51:06.331Z,19.80
2018-03-03T06:53:37.883Z,20.00
2018-03-03T06:56:07.592Z,19.23
2018-03-03T06:58:37.302Z,19.70
2018-03-03T07:01:07.834Z,20.47
2018-03-03T07:03:37.745Z,20.47
2018-03-03T07:06:07.454Z,20.53
2018-03-03T07:08:37.378Z,20.80
2018-03-03T07:11:07.284Z,21.83
2018-03-03T07:13:37.200Z,20.13
2018-03-03T07:16:07.110Z,22.40
2018-03-03T07:18:37.433Z,22.20
2018-03-03T07:21:07.289Z,21.80
2018-03-03T07:23:37.016Z,22.77
2018-03-03T07:26:06.914Z,23.33
2018-03-03T07:28:36.885Z,21.33
2018-03-03T07:31:06.861Z,24.67
2018-03-03T07:33:36.922Z,21.80
2018-03-03T07:36:06.833Z,24.80
2018-03-03T07:38:36.487Z,23.83
2018-03-03T07:41:06.201Z,24.63
2018-03-03T07:43:36.167Z,25.40
2018-03-03T07:46:06.082Z,24.40
2018-03-03T07:48:35.995Z,25.30
2018-03-03T07:51:06.112Z,25.53
2018-03-03T07:53:36.230Z,23.60
2018-03-03T07:56:07.995Z,25.37
2018-03-03T07:58:46.713Z,27.70
2018-03-03T08:01:18.262Z,26.00
2018-03-03T08:03:48.383Z,26.50
2018-03-03T08:06:18.297Z,25.47
2018-03-03T08:08:48.156Z,25.10
2018-03-03T08:11:17.920Z,24.90
2018-03-03T08:13:47.834Z,26.80
2018-03-03T08:16:17.748Z,28.50
2018-03-03T08:18:47.664Z,23.57
2018-03-03T08:21:17.566Z,26.07
2018-03-03T08:23:47.289Z,23.17
2018-03-03T08:26:17.815Z,25.77
2018-03-03T08:28:47.732Z,26.10
2018-03-03T08:31:19.488Z,26.20
2018-03-03T08:33:49.302Z,23.80
2018-03-03T08:36:19.930Z,24.27
2018-03-03T08:38:49.640Z,24.93
2018-03-03T08:41:19.555Z,25.63
2018-03-03T08:43:49.433Z,24.93
2018-03-03T08:46:19.584Z,23.23
2018-03-03T08:48:49.297Z,23.20
2018-03-03T08:51:21.272Z,23.60
2018-03-03T08:53:51.173Z,26.47
2018-03-03T08:56:21.177Z,23.50
2018-03-03T08:58:51.206Z,21.70
2018-03-03T09:01:21.504Z,22.77
2018-03-03T09:03:51.241Z,20.60
2018-03-03T09:06:21.527Z,19.70
2018-03-03T09:08:51.279Z,22.53
2018-03-03T09:11:22.007Z,21.67
2018-03-03T09:13:51.920Z,19.83
2018-03-03T09:16:21.631Z,20.33
2018-03-03T09:18:51.339Z,20.97
2018-03-03T09:21:21.048Z,19.40
2018-03-03T09:23:50.765Z,18.57
2018-03-03T09:26:22.056Z,21.40
2018-03-03T09:28:51.823Z,20.70
2018-03-03T09:31:21.524Z,19.30
2018-03-03T09:33:51.440Z,21.00
2018-03-03T09:36:21.355Z,21.30
2018-03-03T09:38:51.065Z,19.47
2018-03-03T09:41:21.115Z,19.33
2018-03-03T09:43:52.284Z,20.43
2018-03-03T09:46:23.877Z,18.27
2018-03-03T09:48:53.951Z,18.70
2018-03-03T09:51:23.876Z,20.53
2018-03-03T09:53:54.237Z,20.20
2018-03-03T09:56:24.969Z,18.63
2018-03-03T09:58:54.833Z,19.30
2018-03-03T10:01:24.801Z,27.77
2018-03-03T10:03:54.655Z,20.60
2018-03-03T10:06:24.817Z,17.47
2018-03-03T10:08:54.610Z,18.73
2018-03-03T10:11:24.455Z,18.30
2018-03-03T10:13:55.806Z,19.77
2018-03-03T10:16:25.719Z,18.97
2018-03-03T10:18:57.239Z,19.23
2018-03-03T10:21:27.603Z,18.93
2018-03-03T10:23:57.507Z,18.47
2018-03-03T10:26:28.265Z,20.63
2018-03-03T10:28:58.116Z,19.60
2018-03-03T10:31:28.069Z,19.17
2018-03-03T10:33:57.984Z,17.93
2018-03-03T10:36:27.903Z,17.17
2018-03-03T10:38:57.778Z,17.87
2018-03-03T10:41:27.728Z,19.70
2018-03-03T10:43:58.460Z,19.50
2018-03-03T10:46:28.353Z,19.93
2018-03-03T10:48:58.084Z,17.23
2018-03-03T10:51:28.203Z,19.77
2018-03-03T10:53:58.322Z,17.37
2018-03-03T10:56:28.236Z,18.53
2018-03-03T10:58:58.100Z,18.43
2018-03-03T11:01:28.481Z,17.97
2018-03-03T11:03:59.322Z,17.77
2018-03-03T11:06:29.331Z,18.37
2018-03-03T11:09:00.036Z,18.20
2018-03-03T11:11:31.007Z,15.40
2018-03-03T11:14:00.709Z,19.63
2018-03-03T11:16:31.036Z,16.10
2018-03-03T11:19:01.314Z,17.43
2018-03-03T11:21:31.302Z,16.27
2018-03-03T11:24:01.186Z,16.27
2018-03-03T11:26:31.106Z,18.97
2018-03-03T11:29:01.014Z,18.00
2018-03-03T11:31:30.931Z,16.70
2018-03-03T11:34:00.842Z,18.60
2018-03-03T11:36:31.582Z,15.90
2018-03-03T11:39:01.495Z,16.10
2018-03-03T11:41:31.616Z,16.97
2018-03-03T11:44:03.071Z,16.13
2018-03-03T11:46:33.694Z,17.60
2018-03-03T11:49:03.606Z,15.30
2018-03-03T11:51:33.519Z,17.27
2018-03-03T11:54:03.486Z,15.03
2018-03-03T11:56:34.168Z,18.30
2018-03-03T11:59:04.084Z,17.00
2018-03-03T12:01:34.000Z,17.10
2018-03-03T12:04:03.926Z,17.87
2018-03-03T12:06:34.031Z,17.50
2018-03-03T12:09:03.943Z,17.10
2018-03-03T12:11:36.322Z,18.53
2018-03-03T12:14:15.465Z,18.23
2018-03-03T12:16:50.492Z,17.00
2018-03-03T12:19:28.081Z,17.27
2018-03-03T12:21:58.501Z,17.57
2018-03-03T12:24:29.235Z,17.80
2018-03-03T12:27:00.787Z,17.73
2018-03-03T12:29:32.137Z,18.10
2018-03-03T12:32:03.073Z,16.83
2018-03-03T12:34:34.598Z,19.20
2018-03-03T12:37:04.542Z,17.50
2018-03-03T12:39:34.660Z,18.03
2018-03-03T12:42:04.677Z,15.90
2018-03-03T12:44:34.662Z,18.47
2018-03-03T12:47:04.816Z,18.00
2018-03-03T12:49:35.138Z,18.33
2018-03-03T12:52:06.693Z,20.50
2018-03-03T12:54:38.065Z,18.33
2018-03-03T12:57:07.952Z,20.70
2018-03-03T12:59:37.833Z,18.17
2018-03-03T13:02:07.738Z,19.80
2018-03-03T13:04:37.568Z,19.47
2018-03-03T13:07:07.419Z,18.83
2018-03-03T13:09:37.526Z,20.77
2018-03-03T13:12:09.024Z,19.10
2018-03-03T13:14:39.810Z,19.13
2018-03-03T13:17:11.507Z,20.60
2018-03-03T13:19:41.277Z,20.57
2018-03-03T13:22:12.657Z,18.37
2018-03-03T13:24:42.538Z,18.93
2018-03-03T13:27:12.453Z,19.83
2018-03-03T13:29:42.581Z,20.43
2018-03-03T13:32:13.220Z,20.73
2018-03-03T13:34:43.917Z,18.70
2018-03-03T13:37:13.954Z,18.10
2018-03-03T13:39:43.765Z,20.50
2018-03-03T13:42:13.854Z,19.10
2018-03-03T13:44:43.803Z,18.77
2018-03-03T13:47:14.297Z,20.63
2018-03-03T13:49:44.462Z,17.47
2018-03-03T13:52:14.364Z,18.50
2018-03-03T13:54:44.891Z,17.93
2018-03-03T13:57:14.717Z,17.63
2018-03-03T13:59:45.539Z,18.60
2018-03-03T14:02:15.458Z,19.23
2018-03-03T14:04:45.572Z,19.43
2018-03-03T14:07:15.898Z,18.63
2018-03-03T14:09:46.018Z,19.60
2018-03-03T14:12:16.751Z,17.80
2018-03-03T14:14:48.063Z,18.17
2018-03-03T14:17:18.022Z,18.07
2018-03-03T14:19:47.930Z,19.47
2018-03-03T14:22:17.840Z,21.10
2018-03-03T14:24:47.763Z,17.90
2018-03-03T14:27:17.881Z,20.13
2018-03-03T14:29:47.790Z,17.63
2018-03-03T14:32:19.341Z,18.53
2018-03-03T14:34:49.215Z,19.33
2018-03-03T14:37:19.152Z,18.07
2018-03-03T14:39:49.660Z,18.60
2018-03-03T14:42:19.410Z,17.90
2018-03-03T14:44:49.734Z,19.90
2018-03-03T14:47:20.260Z,17.17
2018-03-03T14:49:50.233Z,16.53
2018-03-03T14:52:20.342Z,17.37
2018-03-03T14:54:50.426Z,17.13
2018-03-03T14:57:20.286Z,19.80
2018-03-03T14:59:50.242Z,22.20
2018-03-03T15:02:20.636Z,18.87
2018-03-03T15:04:50.488Z,17.80
2018-03-03T15:07:20.402Z,18.30
2018-03-03T15:09:51.539Z,18.93
2018-03-03T15:12:22.333Z,17.67
2018-03-03T15:14:52.391Z,17.10
2018-03-03T15:17:22.468Z,18.47
2018-03-03T15:19:52.225Z,18.30
2018-03-03T15:22:22.147Z,17.67
2018-03-03T15:24:52.416Z,16.23
2018-03-03T15:27:22.544Z,19.00
2018-03-03T15:29:52.494Z,17.87
2018-03-03T15:32:23.117Z,16.50
2018-03-03T15:34:53.550Z,16.00
2018-03-03T15:37:23.465Z,18.77
2018-03-03T15:39:53.342Z,16.50
2018-03-03T15:42:23.292Z,15.80
2018-03-03T15:44:54.001Z,16.90
2018-03-03T15:47:25.586Z,16.30
2018-03-03T15:49:56.316Z,17.43
2018-03-03T15:52:26.426Z,18.80
2018-03-03T15:54:56.259Z,17.23
2018-03-03T15:57:27.909Z,17.23
2018-03-03T15:59:58.023Z,17.03
2018-03-03T16:02:27.936Z,16.33
2018-03-03T16:04:58.463Z,19.27
2018-03-03T16:07:28.172Z,17.10
2018-03-03T16:09:58.092Z,18.07
2018-03-03T16:12:28.822Z,16.67
2018-03-03T16:14:59.144Z,17.97
2018-03-03T16:17:29.017Z,17.70
2018-03-03T16:19:58.976Z,16.13
2018-03-03T16:22:28.889Z,16.90
2018-03-03T16:24:58.964Z,17.77
2018-03-03T16:27:28.887Z,18.37
2018-03-03T16:29:58.999Z,19.07
2018-03-03T16:32:28.961Z,19.50
2018-03-03T16:34:59.278Z,19.50
2018-03-03T16:37:29.273Z,17.83
2018-03-03T16:39:59.181Z,19.87
2018-03-03T16:42:29.125Z,18.70
2018-03-03T16:44:59.654Z,18.97
2018-03-03T16:47:29.676Z,20.20
2018-03-03T16:49:59.638Z,20.23
2018-03-03T16:52:29.585Z,20.10
2018-03-03T16:54:59.574Z,18.60
2018-03-03T16:57:29.543Z,18.67
2018-03-03T17:00:04.977Z,17.87
2018-03-03T17:02:37.154Z,18.60
2018-03-03T17:05:07.841Z,19.87
2018-03-03T17:07:40.036Z,19.27
2018-03-03T17:10:11.498Z,19.40
2018-03-03T17:12:42.540Z,18.10
2018-03-03T17:15:12.774Z,20.10
2018-03-03T17:17:43.391Z,18.43
2018-03-03T17:20:13.252Z,17.67
2018-03-03T17:22:43.220Z,18.80
2018-03-03T17:25:13.136Z,18.87
2018-03-03T17:27:43.217Z,19.43
2018-03-03T17:30:16.033Z,20.80
2018-03-03T17:32:46.726Z,19.00
2018-03-03T17:35:16.641Z,19.40
2018-03-03T17:37:47.211Z,18.87
2018-03-03T17:40:22.204Z,19.90
2018-03-03T17:42:52.108Z,20.30
2018-03-03T17:45:22.696Z,18.73
2018-03-03T17:47:52.775Z,17.63
2018-03-03T17:50:22.774Z,19.80
2018-03-03T17:52:52.841Z,19.40
2018-03-03T17:55:23.084Z,18.07
2018-03-03T17:57:54.680Z,20.17
2018-03-03T18:00:24.650Z,19.57
2018-03-03T18:02:54.552Z,18.87
2018-03-03T18:05:25.067Z,18.93
2018-03-03T18:07:55.397Z,19.97
2018-03-03T18:10:26.086Z,20.23
2018-03-03T18:12:55.993Z,18.87
2018-03-03T18:15:25.961Z,18.67
2018-03-03T18:17:56.169Z,20.87
2018-03-03T18:20:25.996Z,19.63
2018-03-03T18:22:55.916Z,20.77
2018-03-03T18:25:25.786Z,20.50
2018-03-03T18:27:55.533Z,19.60
2018-03-03T18:30:27.291Z,21.00
2018-03-03T18:32:58.028Z,20.77
2018-03-03T18:35:28.349Z,19.87
2018-03-03T18:37:58.363Z,21.17
2018-03-03T18:40:28.244Z,21.03
2018-03-03T18:42:58.295Z,20.33
2018-03-03T18:45:28.212Z,19.97
2018-03-03T18:47:58.227Z,18.60
2018-03-03T18:50:28.047Z,22.20
2018-03-03T18:52:58.364Z,21.47
2018-03-03T18:55:28.279Z,19.50
2018-03-03T18:57:58.585Z,19.50
2018-03-03T19:00:28.874Z,20.43
2018-03-03T19:02:59.103Z,21.17
2018-03-03T19:05:29.252Z,19.90
2018-03-03T19:07:59.282Z,22.37
2018-03-03T19:10:29.205Z,22.00
2018-03-03T19:12:58.914Z,22.63
2018-03-03T19:15:29.028Z,22.23
2018-03-03T19:17:58.772Z,19.67
2018-03-03T19:20:28.707Z,20.10
2018-03-03T19:22:59.386Z,21.93
2018-03-03T19:25:29.299Z,20.30
2018-03-03T19:27:59.008Z,20.30
2018-03-03T19:30:28.929Z,22.57
2018-03-03T19:32:59.662Z,20.63
2018-03-03T19:35:29.729Z,20.50
2018-03-03T19:37:59.700Z,21.27
2018-03-03T19:40:29.698Z,21.23
2018-03-03T19:42:59.943Z,22.30
2018-03-03T19:45:29.846Z,21.57
2018-03-03T19:48:00.371Z,22.17
2018-03-03T19:50:30.290Z,21.20
2018-03-03T19:53:00.815Z,21.97
2018-03-03T19:55:31.352Z,21.83
2018-03-03T19:58:01.259Z,22.63
2018-03-03T20:00:31.752Z,18.80
2018-03-03T20:03:01.708Z,20.63
2018-03-03T20:05:31.616Z,19.53
2018-03-03T20:08:01.737Z,21.70
2018-03-03T20:10:31.858Z,21.80
2018-03-03T20:13:02.760Z,21.80
2018-03-03T20:15:32.607Z,19.47
2018-03-03T20:18:02.785Z,20.50
2018-03-03T20:20:32.535Z,19.70
2018-03-03T20:23:03.135Z,21.13
2018-03-03T20:25:34.567Z,20.37
2018-03-03T20:28:04.530Z,22.07
2018-03-03T20:30:34.447Z,20.60
2018-03-03T20:33:04.571Z,20.20
2018-03-03T20:35:35.484Z,22.20
2018-03-03T20:38:05.427Z,20.10
2018-03-03T20:40:35.338Z,19.90
2018-03-03T20:43:05.988Z,20.63
2018-03-03T20:45:37.825Z,21.70
2018-03-03T20:48:07.737Z,21.57
2018-03-03T20:50:37.650Z,22.03
2018-03-03T20:53:09.131Z,21.27
2018-03-03T20:55:39.121Z,20.50
2018-03-03T20:58:09.851Z,20.53
2018-03-03T21:00:39.661Z,21.83
2018-03-03T21:03:10.091Z,22.10
2018-03-03T21:05:40.161Z,20.50
2018-03-03T21:08:10.681Z,21.83
2018-03-03T21:10:40.793Z,21.80
2018-03-03T21:13:10.774Z,24.00
2018-03-03T21:15:40.842Z,24.70
2018-03-03T21:18:10.646Z,25.80
2018-03-03T21:20:40.719Z,24.17
2018-03-03T21:23:10.846Z,24.23
2018-03-03T21:25:40.751Z,25.97
2018-03-03T21:28:10.668Z,23.83
2018-03-03T21:30:40.581Z,24.93
2018-03-03T21:33:11.723Z,23.73
2018-03-03T21:35:43.563Z,21.67
2018-03-03T21:38:13.605Z,23.03
2018-03-03T21:40:43.309Z,23.17
2018-03-03T21:43:14.044Z,22.80
2018-03-03T21:45:44.169Z,25.77
2018-03-03T21:48:15.109Z,21.43
2018-03-03T21:50:45.424Z,23.23
2018-03-03T21:53:15.515Z,21.20
2018-03-03T21:55:45.254Z,24.27
2018-03-03T21:58:15.169Z,20.63
2018-03-03T22:00:45.110Z,21.90
2018-03-03T22:03:15.203Z,21.13
2018-03-03T22:05:44.920Z,22.27
2018-03-03T22:08:15.030Z,23.43
2018-03-03T22:10:44.895Z,22.60
2018-03-03T22:13:14.655Z,23.07
2018-03-03T22:15:44.510Z,24.30
2018-03-03T22:18:14.280Z,23.93
2018-03-03T22:20:44.156Z,23.17
2018-03-03T22:26:47.678Z,22.37
2018-03-03T22:29:17.834Z,22.37
2018-03-03T22:31:47.955Z,23.67
2018-03-03T22:34:18.034Z,24.30
2018-03-03T22:36:47.986Z,21.50
2018-03-03T22:39:18.925Z,23.63
2018-03-03T22:41:49.659Z,21.37
2018-03-03T22:44:19.776Z,23.83
2018-03-03T22:46:49.895Z,25.73
2018-03-03T22:49:19.810Z,22.10
2018-03-03T22:51:49.728Z,23.07
2018-03-03T22:54:19.639Z,25.43
2018-03-03T22:56:49.567Z,23.90
2018-03-03T22:59:19.265Z,22.70
2018-03-03T23:01:49.382Z,23.73
2018-03-03T23:04:19.165Z,21.70
2018-03-03T23:06:50.029Z,23.33
2018-03-03T23:09:20.357Z,24.00
2018-03-03T23:11:50.067Z,23.70
2018-03-03T23:14:21.214Z,23.20
2018-03-03T23:16:51.122Z,24.23
2018-03-03T23:19:21.037Z,25.00
2018-03-03T23:21:50.744Z,23.60
2018-03-03T23:24:20.668Z,24.33
2018-03-03T23:26:51.804Z,23.63
2018-03-03T23:29:21.725Z,25.00
2018-03-03T23:31:51.641Z,23.27
2018-03-03T23:34:21.341Z,26.10
2018-03-03T23:36:51.057Z,22.77
2018-03-03T23:41:55.793Z,24.07
2018-03-03T23:44:25.323Z,23.50
2018-03-03T23:46:54.866Z,24.90
2018-03-03T23:49:24.343Z,21.47
2018-03-03T23:51:54.215Z,26.33
2018-03-03T23:54:24.136Z,22.00
2018-03-03T23:56:54.256Z,24.00
2018-03-03T23:59:24.111Z,23.53
